sensor_id;sensor_type;location;lat;lon;timestamp;pressure;altitude;pressure_sealevel;temperature;humidity
11415;BME280;5763;42.714;23.244;2022-09-09T00:02:19;94804.56;;;20.43;64.68
11415;BME280;5763;42.714;23.244;2022-09-09T00:04:55;94791.25;;;20.14;64.30
11415;BME280;5763;42.714;23.244;2022-09-09T00:07:37;94804.31;;;20.41;63.68
11415;BME280;5763;42.714;23.244;2022-09-09T00:10:22;94793.22;;;20.41;64.17
11415;BME280;5763;42.714;23.244;2022-09-09T00:12:56;94801.78;;;20.43;64.55
11415;BME280;5763;42.714;23.244;2022-09-09T00:15:28;94781.59;;;20.37;63.60
11415;BME280;5763;42.714;23.244;2022-09-09T00:18:03;94784.31;;;20.48;64.09
11415;BME280;5763;42.714;23.244;2022-09-09T00:20:38;94788.63;;;20.49;64.48
11415;BME280;5763;42.714;23.244;2022-09-09T00:23:12;94771.75;;;20.36;65.16
11415;BME280;5763;42.714;23.244;2022-09-09T00:25:46;94771.47;;;20.39;65.35
11415;BME280;5763;42.714;23.244;2022-09-09T00:28:18;94761.88;;;20.35;65.40
11415;BME280;5763;42.714;23.244;2022-09-09T00:30:46;94747.78;;;20.22;65.74
11415;BME280;5763;42.714;23.244;2022-09-09T00:33:17;94751.53;;;20.30;65.93
11415;BME280;5763;42.714;23.244;2022-09-09T00:35:49;94758.34;;;20.29;66.04
11415;BME280;5763;42.714;23.244;2022-09-09T00:38:20;94752.06;;;20.23;66.14
11415;BME280;5763;42.714;23.244;2022-09-09T00:40:53;94751.34;;;20.17;66.03
11415;BME280;5763;42.714;23.244;2022-09-09T00:43:27;94764.47;;;20.16;66.10
11415;BME280;5763;42.714;23.244;2022-09-09T00:46:18;94757.16;;;20.02;65.42
11415;BME280;5763;42.714;23.244;2022-09-09T00:48:57;94767.00;;;20.09;65.66
11415;BME280;5763;42.714;23.244;2022-09-09T00:51:35;94773.06;;;20.02;65.65
11415;BME280;5763;42.714;23.244;2022-09-09T00:54:32;94762.22;;;19.98;65.73
11415;BME280;5763;42.714;23.244;2022-09-09T00:57:14;94746.34;;;19.82;66.13
11415;BME280;5763;42.714;23.244;2022-09-09T00:59:47;94760.47;;;19.90;66.83
11415;BME280;5763;42.714;23.244;2022-09-09T01:02:22;94767.53;;;19.91;66.37
11415;BME280;5763;42.714;23.244;2022-09-09T01:04:52;94761.72;;;19.89;66.38
11415;BME280;5763;42.714;23.244;2022-09-09T01:07:20;94765.53;;;19.86;66.03
11415;BME280;5763;42.714;23.244;2022-09-09T01:09:54;94764.78;;;19.91;66.56
11415;BME280;5763;42.714;23.244;2022-09-09T01:12:32;94767.31;;;19.83;66.77
11415;BME280;5763;42.714;23.244;2022-09-09T01:15:09;94767.06;;;19.76;66.80
11415;BME280;5763;42.714;23.244;2022-09-09T01:17:46;94750.16;;;19.63;66.54
11415;BME280;5763;42.714;23.244;2022-09-09T01:20:20;94759.72;;;19.84;66.92
11415;BME280;5763;42.714;23.244;2022-09-09T01:23:01;94749.38;;;19.79;67.05
11415;BME280;5763;42.714;23.244;2022-09-09T01:26:09;94749.63;;;19.75;67.42
11415;BME280;5763;42.714;23.244;2022-09-09T01:28:39;94765.78;;;19.77;67.58
11415;BME280;5763;42.714;23.244;2022-09-09T01:31:09;94718.16;;;19.40;66.95
11415;BME280;5763;42.714;23.244;2022-09-09T01:33:37;94743.88;;;19.46;66.76
11415;BME280;5763;42.714;23.244;2022-09-09T01:36:08;94695.91;;;19.07;66.80
11415;BME280;5763;42.714;23.244;2022-09-09T01:38:36;94757.50;;;19.49;67.28
11415;BME280;5763;42.714;23.244;2022-09-09T01:41:05;94773.66;;;19.67;67.41
11415;BME280;5763;42.714;23.244;2022-09-09T01:43:32;94775.66;;;19.67;67.34
11415;BME280;5763;42.714;23.244;2022-09-09T01:46:00;94769.59;;;19.63;67.39
11415;BME280;5763;42.714;23.244;2022-09-09T01:48:28;94774.38;;;19.68;67.55
11415;BME280;5763;42.714;23.244;2022-09-09T01:50:56;94769.34;;;19.66;67.64
11415;BME280;5763;42.714;23.244;2022-09-09T01:53:23;94778.44;;;19.56;67.85
11415;BME280;5763;42.714;23.244;2022-09-09T01:56:02;94767.34;;;19.56;67.84
11415;BME280;5763;42.714;23.244;2022-09-09T01:58:43;94778.94;;;19.65;68.03
11415;BME280;5763;42.714;23.244;2022-09-09T02:01:24;94765.31;;;19.51;67.45
11415;BME280;5763;42.714;23.244;2022-09-09T02:03:57;94783.25;;;19.61;67.71
11415;BME280;5763;42.714;23.244;2022-09-09T02:06:27;94753.97;;;19.38;67.54
11415;BME280;5763;42.714;23.244;2022-09-09T02:08:58;94733.53;;;19.24;67.39
11415;BME280;5763;42.714;23.244;2022-09-09T02:11:28;94758.50;;;19.57;67.56
11415;BME280;5763;42.714;23.244;2022-09-09T02:13:59;94762.28;;;19.43;68.22
11415;BME280;5763;42.714;23.244;2022-09-09T02:16:31;94767.06;;;19.43;67.97
11415;BME280;5763;42.714;23.244;2022-09-09T02:19:02;94762.81;;;19.36;67.87
11415;BME280;5763;42.714;23.244;2022-09-09T02:21:33;94761.28;;;19.35;67.28
11415;BME280;5763;42.714;23.244;2022-09-09T02:24:04;94772.63;;;19.43;66.83
11415;BME280;5763;42.714;23.244;2022-09-09T02:26:34;94764.84;;;19.41;66.76
11415;BME280;5763;42.714;23.244;2022-09-09T02:29:08;94752.69;;;19.28;66.89
11415;BME280;5763;42.714;23.244;2022-09-09T02:31:37;94778.44;;;19.45;67.11
11415;BME280;5763;42.714;23.244;2022-09-09T02:34:05;94773.66;;;19.40;67.35
11415;BME280;5763;42.714;23.244;2022-09-09T02:36:37;94789.78;;;19.36;66.97
11415;BME280;5763;42.714;23.244;2022-09-09T02:39:07;94788.53;;;19.42;66.91
11415;BME280;5763;42.714;23.244;2022-09-09T02:41:37;94791.81;;;19.41;66.85
11415;BME280;5763;42.714;23.244;2022-09-09T02:44:10;94729.22;;;19.07;67.34
11415;BME280;5763;42.714;23.244;2022-09-09T02:46:51;94756.25;;;19.28;67.32
11415;BME280;5763;42.714;23.244;2022-09-09T02:49:29;94782.97;;;19.48;67.46
11415;BME280;5763;42.714;23.244;2022-09-09T02:52:01;94782.72;;;19.46;67.53
11415;BME280;5763;42.714;23.244;2022-09-09T02:54:30;94784.50;;;19.43;67.74
11415;BME280;5763;42.714;23.244;2022-09-09T02:57:02;94787.78;;;19.42;68.08
11415;BME280;5763;42.714;23.244;2022-09-09T02:59:33;94783.25;;;19.39;68.25
11415;BME280;5763;42.714;23.244;2022-09-09T03:02:00;94788.53;;;19.37;68.24
11415;BME280;5763;42.714;23.244;2022-09-09T03:04:26;94779.47;;;19.36;68.79
11415;BME280;5763;42.714;23.244;2022-09-09T03:06:53;94784.50;;;19.38;68.82
11415;BME280;5763;42.714;23.244;2022-09-09T03:09:20;94794.06;;;19.26;69.41
11415;BME280;5763;42.714;23.244;2022-09-09T03:11:47;94769.34;;;19.22;69.06
11415;BME280;5763;42.714;23.244;2022-09-09T03:14:15;94768.84;;;19.29;69.33
11415;BME280;5763;42.714;23.244;2022-09-09T03:16:43;94776.66;;;19.20;69.05
11415;BME280;5763;42.714;23.244;2022-09-09T03:19:11;94786.53;;;19.26;69.44
11415;BME280;5763;42.714;23.244;2022-09-09T03:21:38;94781.41;;;19.19;68.53
11415;BME280;5763;42.714;23.244;2022-09-09T03:24:05;94777.41;;;19.20;67.90
11415;BME280;5763;42.714;23.244;2022-09-09T03:26:32;94781.94;;;19.18;67.98
11415;BME280;5763;42.714;23.244;2022-09-09T03:28:59;94765.53;;;19.09;67.95
11415;BME280;5763;42.714;23.244;2022-09-09T03:31:26;94768.81;;;19.07;68.54
11415;BME280;5763;42.714;23.244;2022-09-09T03:33:57;94767.03;;;19.04;68.99
11415;BME280;5763;42.714;23.244;2022-09-09T03:36:24;94763.03;;;19.05;69.04
11415;BME280;5763;42.714;23.244;2022-09-09T03:38:53;94774.34;;;19.07;68.91
11415;BME280;5763;42.714;23.244;2022-09-09T03:41:20;94774.63;;;19.04;69.43
11415;BME280;5763;42.714;23.244;2022-09-09T03:43:49;94775.34;;;19.04;68.93
11415;BME280;5763;42.714;23.244;2022-09-09T03:46:16;94781.16;;;19.12;69.04
11415;BME280;5763;42.714;23.244;2022-09-09T03:48:43;94775.88;;;19.08;69.32
11415;BME280;5763;42.714;23.244;2022-09-09T03:51:11;94780.41;;;19.06;69.52
11415;BME280;5763;42.714;23.244;2022-09-09T03:53:38;94760.47;;;18.91;69.61
11415;BME280;5763;42.714;23.244;2022-09-09T03:56:05;94778.13;;;18.99;70.18
11415;BME280;5763;42.714;23.244;2022-09-09T03:58:33;94780.41;;;19.06;69.91
11415;BME280;5763;42.714;23.244;2022-09-09T04:01:02;94771.31;;;19.00;70.30
11415;BME280;5763;42.714;23.244;2022-09-09T04:03:30;94783.94;;;19.01;70.22
11415;BME280;5763;42.714;23.244;2022-09-09T04:05:59;94786.19;;;18.97;70.44
11415;BME280;5763;42.714;23.244;2022-09-09T04:08:29;94788.72;;;18.95;70.45
11415;BME280;5763;42.714;23.244;2022-09-09T04:10:57;94783.69;;;18.99;70.80
11415;BME280;5763;42.714;23.244;2022-09-09T04:13:25;94780.41;;;19.00;70.65
11415;BME280;5763;42.714;23.244;2022-09-09T04:15:52;94774.63;;;19.04;70.42
11415;BME280;5763;42.714;23.244;2022-09-09T04:18:20;94781.16;;;19.01;70.27
11415;BME280;5763;42.714;23.244;2022-09-09T04:20:47;94784.69;;;19.01;70.66
11415;BME280;5763;42.714;23.244;2022-09-09T04:23:14;94771.31;;;18.89;70.08
11415;BME280;5763;42.714;23.244;2022-09-09T04:25:45;94787.44;;;18.90;69.81
11415;BME280;5763;42.714;23.244;2022-09-09T04:28:12;94794.75;;;18.93;69.67
11415;BME280;5763;42.714;23.244;2022-09-09T04:30:39;94794.97;;;18.84;70.21
11415;BME280;5763;42.714;23.244;2022-09-09T04:33:07;94790.72;;;18.89;70.41
11415;BME280;5763;42.714;23.244;2022-09-09T04:35:34;94788.72;;;18.95;70.58
11415;BME280;5763;42.714;23.244;2022-09-09T04:38:02;94789.97;;;18.94;70.38
11415;BME280;5763;42.714;23.244;2022-09-09T04:40:29;94796.78;;;18.93;70.00
11415;BME280;5763;42.714;23.244;2022-09-09T04:42:59;94788.47;;;18.98;69.55
11415;BME280;5763;42.714;23.244;2022-09-09T04:45:26;94788.94;;;18.97;69.56
11415;BME280;5763;42.714;23.244;2022-09-09T04:47:53;94767.00;;;18.82;69.98
11415;BME280;5763;42.714;23.244;2022-09-09T04:50:20;94789.19;;;18.82;70.37
11415;BME280;5763;42.714;23.244;2022-09-09T04:52:47;94781.63;;;18.83;70.94
11415;BME280;5763;42.714;23.244;2022-09-09T04:55:14;94777.84;;;18.80;71.05
11415;BME280;5763;42.714;23.244;2022-09-09T04:57:41;94781.38;;;18.92;71.20
11415;BME280;5763;42.714;23.244;2022-09-09T05:00:10;94787.94;;;18.94;70.67
11415;BME280;5763;42.714;23.244;2022-09-09T05:02:38;94785.44;;;19.02;70.90
11415;BME280;5763;42.714;23.244;2022-09-09T05:05:08;94752.41;;;18.93;70.91
11415;BME280;5763;42.714;23.244;2022-09-09T05:07:36;94765.03;;;19.10;71.20
11415;BME280;5763;42.714;23.244;2022-09-09T05:10:04;94765.78;;;19.05;71.18
11415;BME280;5763;42.714;23.244;2022-09-09T05:12:31;94752.91;;;18.97;71.38
11415;BME280;5763;42.714;23.244;2022-09-09T05:14:58;94772.84;;;19.12;71.18
11415;BME280;5763;42.714;23.244;2022-09-09T05:17:26;94782.47;;;19.27;70.93
11415;BME280;5763;42.714;23.244;2022-09-09T05:19:54;94768.09;;;19.29;71.43
11415;BME280;5763;42.714;23.244;2022-09-09T05:22:22;94762.03;;;19.36;71.06
11415;BME280;5763;42.714;23.244;2022-09-09T05:24:49;94768.09;;;19.40;70.72
11415;BME280;5763;42.714;23.244;2022-09-09T05:27:17;94771.63;;;19.46;70.50
11415;BME280;5763;42.714;23.244;2022-09-09T05:29:44;94773.88;;;19.53;69.86
11415;BME280;5763;42.714;23.244;2022-09-09T05:32:11;94766.81;;;19.63;70.05
11415;BME280;5763;42.714;23.244;2022-09-09T05:34:40;94765.31;;;19.62;69.89
11415;BME280;5763;42.714;23.244;2022-09-09T05:37:07;94769.56;;;19.74;69.40
11415;BME280;5763;42.714;23.244;2022-09-09T05:39:34;94742.34;;;19.56;69.23
11415;BME280;5763;42.714;23.244;2022-09-09T05:42:02;94776.91;;;19.82;68.93
11415;BME280;5763;42.714;23.244;2022-09-09T05:44:30;94777.66;;;19.83;68.93
11415;BME280;5763;42.714;23.244;2022-09-09T05:46:57;94777.41;;;19.81;68.54
11415;BME280;5763;42.714;23.244;2022-09-09T05:49:24;94783.94;;;20.00;68.17
11415;BME280;5763;42.714;23.244;2022-09-09T05:51:52;94783.94;;;20.00;68.46
11415;BME280;5763;42.714;23.244;2022-09-09T05:54:19;94771.84;;;19.97;68.18
11415;BME280;5763;42.714;23.244;2022-09-09T05:56:46;94752.91;;;19.85;67.98
11415;BME280;5763;42.714;23.244;2022-09-09T05:59:16;94773.09;;;19.91;67.50
11415;BME280;5763;42.714;23.244;2022-09-09T06:01:44;94765.78;;;19.88;66.60
11415;BME280;5763;42.714;23.244;2022-09-09T06:04:11;94792.28;;;20.11;66.46
11415;BME280;5763;42.714;23.244;2022-09-09T06:06:38;94803.41;;;20.11;67.12
11415;BME280;5763;42.714;23.244;2022-09-09T06:09:09;94793.03;;;20.17;67.70
11415;BME280;5763;42.714;23.244;2022-09-09T06:11:38;94788.97;;;20.18;68.38
11415;BME280;5763;42.714;23.244;2022-09-09T06:14:06;94783.41;;;20.18;68.29
11415;BME280;5763;42.714;23.244;2022-09-09T06:16:33;94804.09;;;20.33;67.92
11415;BME280;5763;42.714;23.244;2022-09-09T06:19:03;94800.53;;;20.38;66.73
11415;BME280;5763;42.714;23.244;2022-09-09T06:21:31;94774.03;;;20.32;66.58
11415;BME280;5763;42.714;23.244;2022-09-09T06:23:59;94789.38;;;20.44;66.93
11415;BME280;5763;42.714;23.244;2022-09-09T06:26:29;94787.34;;;20.50;67.40
11415;BME280;5763;42.714;23.244;2022-09-09T06:28:57;94795.16;;;20.57;67.04
11415;BME280;5763;42.714;23.244;2022-09-09T06:31:25;94790.31;;;20.63;66.77
11415;BME280;5763;42.714;23.244;2022-09-09T06:33:56;94787.75;;;20.70;66.29
11415;BME280;5763;42.714;23.244;2022-09-09T06:36:25;94782.94;;;20.71;67.18
11415;BME280;5763;42.714;23.244;2022-09-09T06:38:53;94781.38;;;20.81;67.32
11415;BME280;5763;42.714;23.244;2022-09-09T06:41:23;94785.94;;;20.89;67.37
11415;BME280;5763;42.714;23.244;2022-09-09T06:43:52;94781.53;;;20.99;67.12
11415;BME280;5763;42.714;23.244;2022-09-09T06:46:22;94779.53;;;21.00;67.41
11415;BME280;5763;42.714;23.244;2022-09-09T06:48:52;94767.38;;;21.03;66.84
11415;BME280;5763;42.714;23.244;2022-09-09T06:51:21;94785.75;;;21.17;65.99
11415;BME280;5763;42.714;23.244;2022-09-09T06:53:51;94794.84;;;21.23;65.12
11415;BME280;5763;42.714;23.244;2022-09-09T06:56:21;94798.34;;;21.29;64.22
11415;BME280;5763;42.714;23.244;2022-09-09T06:58:49;94804.09;;;21.36;63.56
11415;BME280;5763;42.714;23.244;2022-09-09T07:01:20;94798.72;;;21.44;63.76
11415;BME280;5763;42.714;23.244;2022-09-09T07:03:50;94798.66;;;21.49;63.71
11415;BME280;5763;42.714;23.244;2022-09-09T07:06:19;94789.56;;;21.49;63.63
11415;BME280;5763;42.714;23.244;2022-09-09T07:08:49;94797.78;;;21.65;63.20
11415;BME280;5763;42.714;23.244;2022-09-09T07:11:16;94792.72;;;21.69;63.29
11415;BME280;5763;42.714;23.244;2022-09-09T07:13:43;94775.97;;;21.75;62.91
11415;BME280;5763;42.714;23.244;2022-09-09T07:16:13;94778.47;;;21.78;62.96
11415;BME280;5763;42.714;23.244;2022-09-09T07:18:41;94784.72;;;21.84;62.85
11415;BME280;5763;42.714;23.244;2022-09-09T07:21:09;94788.41;;;21.98;62.76
11415;BME280;5763;42.714;23.244;2022-09-09T07:23:37;94791.44;;;22.00;62.33
11415;BME280;5763;42.714;23.244;2022-09-09T07:26:08;94783.19;;;22.13;61.84
11415;BME280;5763;42.714;23.244;2022-09-09T07:28:36;94774.09;;;22.12;62.04
11415;BME280;5763;42.714;23.244;2022-09-09T07:31:04;94783.31;;;22.26;61.71
11415;BME280;5763;42.714;23.244;2022-09-09T07:33:32;94786.50;;;22.35;60.59
11415;BME280;5763;42.714;23.244;2022-09-09T07:36:05;94778.06;;;22.41;59.52
11415;BME280;5763;42.714;23.244;2022-09-09T07:38:38;94787.31;;;22.54;59.69
11415;BME280;5763;42.714;23.244;2022-09-09T07:41:07;94796.06;;;22.64;59.75
11415;BME280;5763;42.714;23.244;2022-09-09T07:43:37;94772.25;;;22.63;59.56
11415;BME280;5763;42.714;23.244;2022-09-09T07:46:05;94771.59;;;22.75;58.94
11415;BME280;5763;42.714;23.244;2022-09-09T07:48:32;94765.63;;;22.84;58.70
11415;BME280;5763;42.714;23.244;2022-09-09T07:51:10;94793.22;;;23.06;58.15
11415;BME280;5763;42.714;23.244;2022-09-09T07:53:38;94788.38;;;23.07;57.25
11415;BME280;5763;42.714;23.244;2022-09-09T07:56:07;94792.09;;;23.15;56.50
11415;BME280;5763;42.714;23.244;2022-09-09T07:58:35;94792.88;;;23.34;56.06
11415;BME280;5763;42.714;23.244;2022-09-09T08:01:07;94798.75;;;23.49;55.84
11415;BME280;5763;42.714;23.244;2022-09-09T08:03:35;94797.06;;;23.59;55.62
11415;BME280;5763;42.714;23.244;2022-09-09T08:06:03;94803.19;;;23.57;55.11
11415;BME280;5763;42.714;23.244;2022-09-09T08:08:31;94791.69;;;23.61;54.96
11415;BME280;5763;42.714;23.244;2022-09-09T08:11:02;94784.19;;;23.69;55.23
11415;BME280;5763;42.714;23.244;2022-09-09T08:13:29;94782.13;;;23.69;54.64
11415;BME280;5763;42.714;23.244;2022-09-09T08:16:04;94780.28;;;23.90;53.33
11415;BME280;5763;42.714;23.244;2022-09-09T08:18:31;94739.25;;;23.67;52.92
11415;BME280;5763;42.714;23.244;2022-09-09T08:21:04;94777.63;;;24.11;52.82
11415;BME280;5763;42.714;23.244;2022-09-09T08:23:33;94787.13;;;24.34;53.34
11415;BME280;5763;42.714;23.244;2022-09-09T08:26:04;94769.47;;;24.39;52.14
11415;BME280;5763;42.714;23.244;2022-09-09T08:28:31;94778.09;;;24.54;51.09
11415;BME280;5763;42.714;23.244;2022-09-09T08:31:05;94777.34;;;24.53;51.56
11415;BME280;5763;42.714;23.244;2022-09-09T08:33:32;94772.50;;;24.67;51.26
11415;BME280;5763;42.714;23.244;2022-09-09T08:35:59;94774.84;;;24.76;50.98
11415;BME280;5763;42.714;23.244;2022-09-09T08:38:26;94779.81;;;24.83;50.18
11415;BME280;5763;42.714;23.244;2022-09-09T08:41:04;94772.91;;;24.84;50.10
11415;BME280;5763;42.714;23.244;2022-09-09T08:43:34;94763.66;;;24.89;50.43
11415;BME280;5763;42.714;23.244;2022-09-09T08:46:07;94766.97;;;25.00;50.90
11415;BME280;5763;42.714;23.244;2022-09-09T08:48:46;94771.97;;;25.15;50.63
11415;BME280;5763;42.714;23.244;2022-09-09T08:51:17;94766.47;;;25.22;49.01
11415;BME280;5763;42.714;23.244;2022-09-09T08:53:49;94757.75;;;25.26;50.17
11415;BME280;5763;42.714;23.244;2022-09-09T08:56:22;94772.34;;;25.45;49.41
11415;BME280;5763;42.714;23.244;2022-09-09T08:58:51;94759.00;;;25.38;47.79
11415;BME280;5763;42.714;23.244;2022-09-09T09:01:44;94773.34;;;25.34;47.99
11415;BME280;5763;42.714;23.244;2022-09-09T09:04:36;94767.63;;;25.40;47.67
11415;BME280;5763;42.714;23.244;2022-09-09T09:07:12;94771.81;;;25.67;48.08
11415;BME280;5763;42.714;23.244;2022-09-09T09:09:46;94769.75;;;25.88;48.16
11415;BME280;5763;42.714;23.244;2022-09-09T09:12:20;94773.53;;;26.11;47.58
11415;BME280;5763;42.714;23.244;2022-09-09T09:14:48;94764.31;;;26.31;47.38
11415;BME280;5763;42.714;23.244;2022-09-09T09:17:18;94747.63;;;26.53;46.88
11415;BME280;5763;42.714;23.244;2022-09-09T09:19:47;94760.75;;;26.86;46.44
11415;BME280;5763;42.714;23.244;2022-09-09T09:22:18;94768.09;;;26.97;46.63
11415;BME280;5763;42.714;23.244;2022-09-09T09:24:51;94768.09;;;26.97;45.04
11415;BME280;5763;42.714;23.244;2022-09-09T09:27:25;94710.38;;;26.53;44.75
11415;BME280;5763;42.714;23.244;2022-09-09T09:29:58;94769.69;;;26.77;44.91
11415;BME280;5763;42.714;23.244;2022-09-09T09:32:28;94765.53;;;26.71;44.75
11415;BME280;5763;42.714;23.244;2022-09-09T09:34:58;94698.44;;;26.24;45.71
11415;BME280;5763;42.714;23.244;2022-09-09T09:37:32;94758.41;;;26.70;45.68
11415;BME280;5763;42.714;23.244;2022-09-09T09:40:08;94732.06;;;26.45;46.90
11415;BME280;5763;42.714;23.244;2022-09-09T09:42:37;94753.34;;;26.40;47.26
11415;BME280;5763;42.714;23.244;2022-09-09T09:45:12;94738.63;;;26.19;47.83
11415;BME280;5763;42.714;23.244;2022-09-09T09:47:41;94745.47;;;26.11;46.68
11415;BME280;5763;42.714;23.244;2022-09-09T09:50:17;94741.84;;;26.03;46.97
11415;BME280;5763;42.714;23.244;2022-09-09T09:52:53;94724.78;;;25.93;46.54
11415;BME280;5763;42.714;23.244;2022-09-09T09:55:22;94735.44;;;25.95;46.83
11415;BME280;5763;42.714;23.244;2022-09-09T09:57:51;94720.78;;;25.89;47.85
11415;BME280;5763;42.714;23.244;2022-09-09T10:00:21;94733.88;;;25.86;48.68
11415;BME280;5763;42.714;23.244;2022-09-09T10:02:49;94728.13;;;25.71;49.59
11415;BME280;5763;42.714;23.244;2022-09-09T10:05:19;94736.66;;;25.66;50.10
11415;BME280;5763;42.714;23.244;2022-09-09T10:07:47;94744.81;;;25.56;47.58
11415;BME280;5763;42.714;23.244;2022-09-09T10:10:42;94661.13;;;24.86;47.95
11415;BME280;5763;42.714;23.244;2022-09-09T10:13:19;94758.06;;;25.35;48.93
11415;BME280;5763;42.714;23.244;2022-09-09T10:15:57;94753.34;;;25.30;50.04
11415;BME280;5763;42.714;23.244;2022-09-09T10:18:41;94712.44;;;25.01;50.50
11415;BME280;5763;42.714;23.244;2022-09-09T10:21:20;94760.31;;;25.24;51.17
11415;BME280;5763;42.714;23.244;2022-09-09T10:24:11;94748.34;;;25.23;52.07
11415;BME280;5763;42.714;23.244;2022-09-09T10:26:48;94748.16;;;25.21;53.04
11415;BME280;5763;42.714;23.244;2022-09-09T10:29:34;94739.38;;;25.04;50.38
11415;BME280;5763;42.714;23.244;2022-09-09T10:32:17;94757.97;;;25.15;51.32
11415;BME280;5763;42.714;23.244;2022-09-09T10:34:56;94759.06;;;25.12;51.60
11415;BME280;5763;42.714;23.244;2022-09-09T10:37:42;94756.31;;;24.99;51.75
11415;BME280;5763;42.714;23.244;2022-09-09T10:40:25;94763.41;;;25.00;52.12
11415;BME280;5763;42.714;23.244;2022-09-09T10:43:03;94755.53;;;24.98;52.85
11415;BME280;5763;42.714;23.244;2022-09-09T10:45:43;94772.31;;;25.11;52.81
11415;BME280;5763;42.714;23.244;2022-09-09T10:48:30;94727.91;;;24.82;53.61
11415;BME280;5763;42.714;23.244;2022-09-09T10:51:06;94769.53;;;25.11;51.64
11415;BME280;5763;42.714;23.244;2022-09-09T10:53:48;94764.69;;;25.12;51.82
11415;BME280;5763;42.714;23.244;2022-09-09T10:56:20;94754.81;;;24.98;52.46
11415;BME280;5763;42.714;23.244;2022-09-09T10:58:52;94763.81;;;25.17;52.24
11415;BME280;5763;42.714;23.244;2022-09-09T11:01:25;94752.16;;;25.13;52.57
11415;BME280;5763;42.714;23.244;2022-09-09T11:03:57;94762.28;;;25.16;52.97
11415;BME280;5763;42.714;23.244;2022-09-09T11:06:31;94749.22;;;25.18;52.49
11415;BME280;5763;42.714;23.244;2022-09-09T11:09:01;94746.78;;;25.15;52.43
11415;BME280;5763;42.714;23.244;2022-09-09T11:11:32;94757.53;;;25.24;52.86
11415;BME280;5763;42.714;23.244;2022-09-09T11:14:05;94656.44;;;24.55;53.16
11415;BME280;5763;42.714;23.244;2022-09-09T11:16:40;94722.19;;;25.21;52.42
11415;BME280;5763;42.714;23.244;2022-09-09T11:19:15;94711.94;;;25.23;52.58
11415;BME280;5763;42.714;23.244;2022-09-09T11:21:46;94740.00;;;25.64;52.54
11415;BME280;5763;42.714;23.244;2022-09-09T11:24:16;94732.78;;;25.69;52.88
11415;BME280;5763;42.714;23.244;2022-09-09T11:26:58;94739.28;;;25.64;52.64
11415;BME280;5763;42.714;23.244;2022-09-09T11:32:52;94659.41;;;25.37;51.53
11415;BME280;5763;42.714;23.244;2022-09-09T11:35:33;94686.53;;;25.62;50.72
11415;BME280;5763;42.714;23.244;2022-09-09T11:38:16;94698.63;;;25.78;51.01
11415;BME280;5763;42.714;23.244;2022-09-09T11:40:45;94694.53;;;25.79;51.49
11415;BME280;5763;42.714;23.244;2022-09-09T11:43:15;94692.75;;;25.89;52.22
11415;BME280;5763;42.714;23.244;2022-09-09T11:45:51;94681.84;;;25.85;52.17
11415;BME280;5763;42.714;23.244;2022-09-09T11:48:28;94665.78;;;25.86;52.65
11415;BME280;5763;42.714;23.244;2022-09-09T11:51:01;94671.94;;;26.05;52.31
11415;BME280;5763;42.714;23.244;2022-09-09T11:53:30;94690.25;;;26.34;51.20
11415;BME280;5763;42.714;23.244;2022-09-09T11:58:55;94677.91;;;27.23;49.68
11415;BME280;5763;42.714;23.244;2022-09-09T12:01:29;94686.22;;;27.81;49.40
11415;BME280;5763;42.714;23.244;2022-09-09T12:04:17;94671.56;;;28.27;47.10
11415;BME280;5763;42.714;23.244;2022-09-09T12:06:46;94668.94;;;28.22;47.52
11415;BME280;5763;42.714;23.244;2022-09-09T12:09:24;94623.56;;;27.95;47.02
11415;BME280;5763;42.714;23.244;2022-09-09T12:11:52;94656.59;;;27.95;46.83
11415;BME280;5763;42.714;23.244;2022-09-09T12:14:21;94573.16;;;27.30;47.59
11415;BME280;5763;42.714;23.244;2022-09-09T12:16:49;94620.19;;;27.59;47.80
11415;BME280;5763;42.714;23.244;2022-09-09T12:19:21;94600.16;;;27.25;47.66
11415;BME280;5763;42.714;23.244;2022-09-09T12:21:56;94596.41;;;27.30;47.62
11415;BME280;5763;42.714;23.244;2022-09-09T12:24:31;94623.22;;;27.54;48.61
11415;BME280;5763;42.714;23.244;2022-09-09T12:27:11;94577.59;;;27.93;47.07
11415;BME280;5763;42.714;23.244;2022-09-09T12:29:45;94565.00;;;28.09;46.39
11415;BME280;5763;42.714;23.244;2022-09-09T12:32:22;94649.94;;;28.45;46.20
11415;BME280;5763;42.714;23.244;2022-09-09T12:34:57;94531.75;;;27.38;46.71
11415;BME280;5763;42.714;23.244;2022-09-09T12:37:31;94538.66;;;27.07;47.32
11415;BME280;5763;42.714;23.244;2022-09-09T12:39:59;94636.88;;;27.72;48.49
11415;BME280;5763;42.714;23.244;2022-09-09T12:42:28;94632.97;;;27.68;48.00
11415;BME280;5763;42.714;23.244;2022-09-09T12:44:57;94557.19;;;27.10;49.03
11415;BME280;5763;42.714;23.244;2022-09-09T12:47:30;94518.41;;;26.63;49.37
11415;BME280;5763;42.714;23.244;2022-09-09T12:50:01;94631.66;;;27.46;49.11
11415;BME280;5763;42.714;23.244;2022-09-09T12:52:30;94540.31;;;26.80;47.58
11415;BME280;5763;42.714;23.244;2022-09-09T12:54:59;94631.66;;;27.61;47.90
11415;BME280;5763;42.714;23.244;2022-09-09T12:57:31;94621.13;;;27.62;48.03
11415;BME280;5763;42.714;23.244;2022-09-09T13:00:12;94605.41;;;27.44;47.94
11415;BME280;5763;42.714;23.244;2022-09-09T13:02:50;94492.88;;;26.54;48.16
11415;BME280;5763;42.714;23.244;2022-09-09T13:05:21;94625.25;;;27.23;48.62
11415;BME280;5763;42.714;23.244;2022-09-09T13:07:49;94589.59;;;26.96;49.34
11415;BME280;5763;42.714;23.244;2022-09-09T13:10:22;94621.34;;;27.41;47.17
11415;BME280;5763;42.714;23.244;2022-09-09T13:12:52;94545.59;;;27.13;47.67
11415;BME280;5763;42.714;23.244;2022-09-09T13:15:21;94588.34;;;27.49;47.51
11415;BME280;5763;42.714;23.244;2022-09-09T13:17:56;94626.97;;;27.41;48.00
11415;BME280;5763;42.714;23.244;2022-09-09T13:20:25;94597.16;;;27.31;48.47
11415;BME280;5763;42.714;23.244;2022-09-09T13:22:53;94606.13;;;27.37;48.52
11415;BME280;5763;42.714;23.244;2022-09-09T13:25:24;94558.88;;;26.90;49.52
11415;BME280;5763;42.714;23.244;2022-09-09T13:27:58;94596.75;;;27.04;50.38
11415;BME280;5763;42.714;23.244;2022-09-09T13:30:28;94596.31;;;26.78;50.43